createdAt,value
2022-08-17T00:00:00.025Z,17.46
2022-08-17T00:02:27.709Z,17.36
2022-08-17T00:04:55.407Z,17.31
2022-08-17T00:07:22.975Z,17.35
2022-08-17T00:09:49.909Z,17.24
2022-08-17T00:12:42.664Z,17.11
2022-08-17T00:15:05.841Z,17.04
2022-08-17T00:17:37.921Z,16.96
2022-08-17T00:20:05.476Z,17.00
2022-08-17T00:22:36.303Z,17.01
2022-08-17T00:25:10.467Z,16.97
2022-08-17T00:27:37.211Z,16.91
2022-08-17T00:30:10.164Z,16.87
2022-08-17T00:33:11.987Z,16.85
2022-08-17T00:35:34.404Z,16.79
2022-08-17T00:38:01.146Z,16.78
2022-08-17T00:40:40.034Z,16.74
2022-08-17T00:43:47.110Z,16.77
2022-08-17T00:46:18.033Z,16.78
2022-08-17T00:48:45.781Z,16.69
2022-08-17T00:51:22.782Z,16.70
2022-08-17T00:54:04.303Z,16.72
2022-08-17T00:56:37.905Z,16.68
2022-08-17T00:59:07.507Z,16.53
2022-08-17T01:01:35.214Z,16.61
2022-08-17T01:04:02.886Z,16.63
2022-08-17T01:06:30.070Z,16.58
2022-08-17T01:08:59.480Z,16.50
2022-08-17T01:11:27.813Z,16.35
2022-08-17T01:13:54.686Z,16.28
2022-08-17T01:16:28.697Z,16.27
2022-08-17T01:18:59.483Z,16.15
2022-08-17T01:21:36.464Z,16.04
2022-08-17T01:24:03.966Z,15.93
2022-08-17T01:26:33.054Z,15.85
2022-08-17T01:29:02.389Z,15.78
2022-08-17T01:31:33.686Z,15.73
2022-08-17T01:34:03.059Z,15.78
2022-08-17T01:36:30.543Z,15.79
2022-08-17T01:38:57.345Z,15.72
2022-08-17T01:41:24.638Z,15.64
2022-08-17T01:43:56.884Z,15.70
2022-08-17T01:46:27.880Z,15.65
2022-08-17T01:48:56.376Z,15.62
2022-08-17T01:51:26.238Z,15.55
2022-08-17T01:53:58.077Z,15.51
2022-08-17T01:56:27.313Z,15.22
2022-08-17T01:58:54.624Z,15.41
2022-08-17T02:01:25.265Z,15.37
2022-08-17T02:03:59.747Z,15.29
2022-08-17T02:06:31.452Z,15.32
2022-08-17T02:09:16.513Z,15.29
2022-08-17T02:11:45.276Z,15.31
2022-08-17T02:14:13.838Z,15.27
2022-08-17T02:16:41.299Z,15.26
2022-08-17T02:19:14.730Z,15.22
2022-08-17T02:21:44.457Z,15.22
2022-08-17T02:24:17.771Z,15.16
2022-08-17T02:27:05.451Z,15.06
2022-08-17T02:29:32.555Z,15.19
2022-08-17T02:32:00.256Z,15.18
2022-08-17T02:34:27.576Z,15.18
2022-08-17T02:36:54.485Z,15.16
2022-08-17T02:39:21.732Z,15.12
2022-08-17T02:41:48.947Z,15.12
2022-08-17T02:44:38.909Z,15.01
2022-08-17T02:47:04.166Z,15.01
2022-08-17T02:49:31.033Z,15.04
2022-08-17T02:51:58.719Z,15.07
2022-08-17T02:54:39.706Z,15.18
2022-08-17T02:57:10.067Z,15.16
2022-08-17T02:59:38.755Z,15.07
2022-08-17T03:02:12.482Z,15.04
2022-08-17T03:04:39.204Z,14.97
2022-08-17T03:07:06.682Z,14.94
2022-08-17T03:09:33.463Z,14.90
2022-08-17T03:12:12.924Z,14.87
2022-08-17T03:14:41.926Z,14.81
2022-08-17T03:17:10.300Z,14.79
2022-08-17T03:19:37.643Z,14.68
2022-08-17T03:22:36.864Z,14.62
2022-08-17T03:24:56.875Z,14.60
2022-08-17T03:27:23.627Z,14.61
2022-08-17T03:29:50.495Z,14.65
2022-08-17T03:32:17.468Z,14.72
2022-08-17T03:34:44.313Z,14.76
2022-08-17T03:37:11.115Z,14.74
2022-08-17T03:39:38.334Z,14.70
2022-08-17T03:42:31.859Z,14.72
2022-08-17T03:45:00.613Z,14.65
2022-08-17T03:47:46.767Z,14.59
2022-08-17T03:50:33.933Z,14.57
2022-08-17T03:53:21.842Z,14.51
2022-08-17T03:56:07.220Z,14.49
2022-08-17T03:58:34.084Z,14.50
2022-08-17T04:01:01.405Z,14.46
2022-08-17T04:03:28.690Z,14.53
2022-08-17T04:05:55.630Z,14.58
2022-08-17T04:08:22.550Z,14.64
2022-08-17T04:10:49.526Z,14.71
2022-08-17T04:13:16.260Z,14.62
2022-08-17T04:15:51.894Z,14.96
2022-08-17T04:18:19.201Z,15.05
2022-08-17T04:20:46.022Z,15.14
2022-08-17T04:23:17.301Z,15.25
2022-08-17T04:25:50.645Z,15.18
2022-08-17T04:28:19.064Z,15.38
2022-08-17T04:30:47.394Z,15.43
2022-08-17T04:33:17.952Z,15.49
2022-08-17T04:35:47.898Z,15.55
2022-08-17T04:38:20.946Z,15.73
2022-08-17T04:41:06.614Z,15.86
2022-08-17T04:43:35.444Z,15.89
2022-08-17T04:46:09.030Z,16.09
2022-08-17T04:48:57.434Z,16.36
2022-08-17T04:51:34.401Z,16.49
2022-08-17T04:54:04.667Z,16.67
2022-08-17T04:56:32.992Z,16.86
2022-08-17T04:59:08.964Z,17.04
2022-08-17T05:01:38.945Z,17.22
2022-08-17T05:04:33.092Z,17.37
2022-08-17T05:06:58.012Z,17.52
2022-08-17T05:09:25.251Z,17.49
2022-08-17T05:11:52.259Z,17.56
2022-08-17T05:14:22.623Z,17.59
2022-08-17T05:17:00.137Z,17.73
2022-08-17T05:19:28.113Z,17.73
2022-08-17T05:21:55.078Z,17.94
2022-08-17T05:24:42.879Z,17.96
2022-08-17T05:27:08.640Z,18.20
2022-08-17T05:29:36.014Z,18.26
2022-08-17T05:32:38.614Z,18.45
2022-08-17T05:35:00.018Z,18.58
2022-08-17T05:37:26.931Z,18.68
2022-08-17T05:39:54.514Z,18.79
2022-08-17T05:42:21.945Z,18.99
2022-08-17T05:44:48.806Z,19.15
2022-08-17T05:47:15.840Z,19.24
2022-08-17T05:49:42.619Z,19.47
2022-08-17T05:52:24.429Z,19.63
2022-08-17T05:54:57.316Z,19.76
2022-08-17T05:57:30.709Z,19.91
2022-08-17T06:00:11.082Z,20.10
2022-08-17T06:03:04.920Z,20.29
2022-08-17T06:05:54.122Z,20.32
2022-08-17T06:08:34.380Z,20.43
2022-08-17T06:11:22.878Z,20.56
2022-08-17T06:14:12.339Z,20.73
2022-08-17T06:16:44.596Z,20.85
2022-08-17T06:19:31.593Z,21.00
2022-08-17T06:21:59.017Z,21.09
2022-08-17T06:24:39.608Z,21.20
2022-08-17T06:27:18.538Z,21.30
2022-08-17T06:30:02.427Z,21.42
2022-08-17T06:32:29.819Z,21.56
2022-08-17T06:34:57.764Z,21.71
2022-08-17T06:37:41.208Z,21.80
2022-08-17T06:40:26.674Z,21.95
2022-08-17T06:43:19.444Z,22.06
2022-08-17T06:45:57.632Z,22.21
2022-08-17T06:48:33.680Z,22.38
2022-08-17T06:51:07.239Z,22.50
2022-08-17T06:53:46.516Z,22.54
2022-08-17T06:56:23.748Z,22.58
2022-08-17T06:58:55.938Z,22.77
2022-08-17T07:01:30.923Z,22.90
2022-08-17T07:04:13.108Z,23.07
2022-08-17T07:06:39.830Z,23.15
2022-08-17T07:09:28.157Z,23.36
2022-08-17T07:12:05.422Z,23.40
2022-08-17T07:14:41.114Z,23.43
2022-08-17T07:17:14.100Z,23.36
2022-08-17T07:19:45.733Z,23.58
2022-08-17T07:22:18.521Z,23.67
2022-08-17T07:24:47.217Z,23.78
2022-08-17T07:27:21.950Z,23.82
2022-08-17T07:30:22.868Z,23.93
2022-08-17T07:33:09.495Z,24.02
2022-08-17T07:35:44.185Z,24.03
2022-08-17T07:38:28.047Z,23.87
2022-08-17T07:41:05.018Z,24.03
2022-08-17T07:43:40.636Z,24.16
2022-08-17T07:46:50.523Z,24.28
2022-08-17T07:49:32.173Z,24.46
2022-08-17T07:52:47.302Z,24.66
2022-08-17T07:54:49.337Z,24.93
2022-08-17T07:57:19.451Z,24.98
2022-08-17T08:00:16.998Z,25.00
2022-08-17T08:02:47.689Z,25.16
2022-08-17T08:05:48.754Z,25.37
2022-08-17T08:08:33.226Z,25.51
2022-08-17T08:11:07.471Z,25.57
2022-08-17T08:13:36.063Z,25.79
2022-08-17T08:16:19.934Z,25.96
2022-08-17T08:18:56.115Z,26.02
2022-08-17T08:22:02.352Z,26.24
2022-08-17T08:25:07.972Z,26.16
2022-08-17T08:27:41.038Z,26.27
2022-08-17T08:30:15.130Z,26.35
2022-08-17T08:33:27.398Z,26.61
2022-08-17T08:36:07.534Z,26.88
2022-08-17T08:39:15.995Z,27.20
2022-08-17T08:42:00.740Z,27.41
2022-08-17T08:45:00.998Z,27.50
2022-08-17T08:47:44.278Z,27.23
2022-08-17T08:50:37.949Z,27.21
2022-08-17T08:53:15.140Z,27.29
2022-08-17T08:55:50.796Z,27.39
2022-08-17T08:58:50.842Z,27.60
2022-08-17T09:01:34.380Z,27.83
2022-08-17T09:04:29.366Z,27.83
2022-08-17T09:07:34.957Z,27.92
2022-08-17T09:10:30.951Z,28.21
2022-08-17T09:13:22.066Z,28.27
2022-08-17T09:15:57.650Z,28.00
2022-08-17T09:18:59.305Z,28.20
2022-08-17T09:21:54.591Z,28.43
2022-08-17T09:24:32.035Z,28.61
2022-08-17T09:27:23.759Z,28.96
2022-08-17T09:30:18.334Z,29.05
2022-08-17T09:32:55.466Z,29.04
2022-08-17T09:36:07.485Z,29.26
2022-08-17T09:39:00.297Z,29.33
2022-08-17T09:41:49.196Z,29.60
2022-08-17T09:44:40.583Z,29.57
2022-08-17T09:47:26.261Z,29.62
2022-08-17T09:49:58.746Z,29.84
2022-08-17T09:52:28.549Z,30.11
2022-08-17T09:54:57.723Z,30.06
2022-08-17T09:58:04.992Z,30.17
2022-08-17T10:00:37.516Z,30.45
2022-08-17T10:03:32.458Z,30.67
2022-08-17T10:06:13.285Z,30.85
2022-08-17T10:08:52.462Z,30.37
2022-08-17T10:11:53.085Z,30.61
2022-08-17T10:14:57.173Z,30.72
2022-08-17T10:17:50.645Z,30.55
2022-08-17T10:20:30.852Z,30.61
2022-08-17T10:23:29.955Z,30.83
2022-08-17T10:26:15.934Z,30.74
2022-08-17T10:29:15.783Z,30.57
2022-08-17T10:32:08.782Z,30.71
2022-08-17T10:34:40.391Z,30.71
2022-08-17T10:37:43.201Z,30.74
2022-08-17T10:40:34.692Z,31.38
2022-08-17T10:44:36.563Z,31.34
2022-08-17T10:47:04.384Z,32.30
2022-08-17T10:49:38.930Z,32.60
2022-08-17T10:52:21.839Z,32.45
2022-08-17T10:55:12.367Z,32.44
2022-08-17T10:57:45.263Z,32.76
2022-08-17T11:00:27.900Z,32.89
2022-08-17T11:02:56.095Z,32.82
2022-08-17T11:05:52.294Z,32.40
2022-08-17T11:08:39.285Z,32.05
2022-08-17T11:11:25.939Z,31.01
2022-08-17T11:14:14.784Z,29.73
2022-08-17T11:16:48.069Z,29.12
2022-08-17T11:19:37.371Z,28.47
2022-08-17T11:22:31.311Z,27.86
2022-08-17T11:25:13.037Z,27.39
2022-08-17T11:27:40.549Z,27.06
2022-08-17T11:30:29.513Z,26.68
2022-08-17T11:32:58.436Z,26.65
2022-08-17T11:35:38.342Z,26.59
2022-08-17T11:38:05.186Z,26.68
2022-08-17T11:41:18.641Z,26.74
2022-08-17T11:44:19.265Z,26.87
2022-08-17T11:47:29.703Z,27.30
2022-08-17T11:50:27.754Z,27.74
2022-08-17T11:52:55.492Z,28.16
2022-08-17T11:55:39.343Z,28.47
2022-08-17T11:58:30.496Z,29.06
2022-08-17T12:00:57.270Z,29.64
2022-08-17T12:03:36.955Z,30.27
2022-08-17T12:06:19.529Z,30.89
2022-08-17T12:08:56.829Z,31.82
2022-08-17T12:11:55.338Z,32.42
2022-08-17T12:15:07.967Z,33.01
2022-08-17T12:17:40.389Z,33.44
2022-08-17T12:20:24.067Z,33.60
2022-08-17T12:23:04.531Z,34.27
2022-08-17T12:25:39.191Z,33.82
2022-08-17T12:28:22.219Z,33.19
2022-08-17T12:30:51.911Z,32.57
2022-08-17T12:33:25.581Z,32.68
2022-08-17T12:36:04.176Z,32.37
2022-08-17T12:38:34.673Z,32.08
2022-08-17T12:41:25.321Z,31.75
2022-08-17T12:44:02.271Z,31.74
2022-08-17T12:46:45.289Z,31.52
2022-08-17T12:49:14.694Z,31.43
2022-08-17T12:51:48.191Z,30.81
2022-08-17T12:54:37.782Z,30.73
2022-08-17T12:57:12.051Z,30.54
2022-08-17T13:00:00.908Z,30.44
2022-08-17T13:02:37.887Z,30.43
2022-08-17T13:05:06.001Z,30.43
2022-08-17T13:07:42.621Z,30.30
2022-08-17T13:10:18.304Z,30.27
2022-08-17T13:12:45.212Z,30.35
2022-08-17T13:15:33.688Z,30.50
2022-08-17T13:18:10.744Z,30.48
2022-08-17T13:20:37.713Z,30.49
2022-08-17T13:23:11.965Z,30.49
2022-08-17T13:25:41.050Z,30.57
2022-08-17T13:28:18.446Z,30.60
2022-08-17T13:31:26.336Z,31.37
2022-08-17T13:33:53.187Z,31.57
2022-08-17T13:36:30.420Z,32.19
2022-08-17T13:39:17.612Z,32.69
2022-08-17T13:41:45.525Z,33.46
2022-08-17T13:44:32.889Z,34.26
2022-08-17T13:47:00.807Z,34.54
2022-08-17T13:49:48.449Z,35.31
2022-08-17T13:52:39.500Z,35.76
2022-08-17T13:55:20.682Z,35.90
2022-08-17T13:58:06.546Z,36.43
2022-08-17T14:00:36.753Z,37.14
2022-08-17T14:03:05.228Z,37.52
2022-08-17T14:05:32.516Z,37.24
2022-08-17T14:08:07.107Z,37.47
2022-08-17T14:10:36.500Z,37.64
2022-08-17T14:13:05.344Z,38.36
2022-08-17T14:15:56.021Z,39.23
2022-08-17T14:18:55.563Z,39.79
2022-08-17T14:21:08.488Z,40.30
2022-08-17T14:23:36.783Z,40.29
2022-08-17T14:26:04.083Z,40.38
2022-08-17T14:28:30.942Z,40.70
2022-08-17T14:31:00.406Z,39.69
2022-08-17T14:33:28.933Z,39.56
2022-08-17T14:35:56.029Z,38.13
2022-08-17T14:38:23.349Z,38.28
2022-08-17T14:40:50.303Z,38.59
2022-08-17T14:43:17.888Z,38.92
2022-08-17T14:45:44.721Z,38.16
2022-08-17T14:48:11.547Z,37.86
2022-08-17T14:50:41.901Z,37.12
2022-08-17T14:53:11.259Z,36.66
2022-08-17T14:55:40.626Z,35.85
2022-08-17T14:58:08.996Z,35.66
2022-08-17T15:00:37.051Z,36.43
2022-08-17T15:03:04.346Z,35.91
2022-08-17T15:05:36.654Z,36.15
2022-08-17T15:08:05.609Z,36.03
2022-08-17T15:10:33.006Z,35.54
2022-08-17T15:13:00.486Z,35.59
2022-08-17T15:15:28.549Z,35.89
2022-08-17T15:17:55.688Z,36.24
2022-08-17T15:20:28.046Z,36.24
2022-08-17T15:22:57.253Z,36.38
2022-08-17T15:25:27.510Z,36.25
2022-08-17T15:27:55.890Z,35.85
2022-08-17T15:30:24.258Z,35.49
2022-08-17T15:32:55.258Z,35.64
2022-08-17T15:35:28.198Z,35.75
2022-08-17T15:38:10.637Z,35.65
2022-08-17T15:40:42.919Z,35.87
2022-08-17T15:43:14.491Z,35.80
2022-08-17T15:45:41.512Z,36.17
2022-08-17T15:48:09.048Z,36.36
2022-08-17T15:50:36.769Z,36.05
2022-08-17T15:53:04.911Z,35.74
2022-08-17T15:55:32.799Z,35.69
2022-08-17T15:58:00.231Z,35.85
2022-08-17T16:00:29.311Z,35.55
2022-08-17T16:03:45.398Z,35.55
2022-08-17T16:05:46.806Z,35.22
2022-08-17T16:08:20.939Z,34.93
2022-08-17T16:10:49.770Z,34.84
2022-08-17T16:13:18.356Z,34.95
2022-08-17T16:15:56.602Z,35.30
2022-08-17T16:18:31.378Z,35.67
2022-08-17T16:21:23.359Z,35.90
2022-08-17T16:23:52.843Z,36.23
2022-08-17T16:26:19.823Z,36.59
2022-08-17T16:28:47.035Z,36.24
2022-08-17T16:31:15.171Z,36.16
2022-08-17T16:33:43.045Z,36.36
2022-08-17T16:36:29.895Z,36.19
2022-08-17T16:38:57.186Z,36.14
2022-08-17T16:41:42.619Z,35.86
2022-08-17T16:44:09.364Z,35.63
2022-08-17T16:46:45.621Z,35.70
2022-08-17T16:49:35.557Z,35.72
2022-08-17T16:52:02.950Z,35.56
2022-08-17T16:54:29.769Z,35.27
2022-08-17T16:56:56.533Z,35.02
2022-08-17T16:59:38.826Z,34.28
2022-08-17T17:02:10.911Z,33.40
2022-08-17T17:05:25.206Z,32.78
2022-08-17T17:08:03.864Z,32.19
2022-08-17T17:10:39.613Z,31.72
2022-08-17T17:13:26.283Z,31.23
2022-08-17T17:16:01.209Z,30.91
2022-08-17T17:18:42.739Z,30.51
2022-08-17T17:21:16.804Z,30.18
2022-08-17T17:23:59.732Z,29.95
2022-08-17T17:27:02.999Z,29.55
2022-08-17T17:30:00.299Z,29.16
2022-08-17T17:32:40.221Z,28.87
2022-08-17T17:35:18.267Z,28.47
2022-08-17T17:37:46.949Z,28.22
2022-08-17T17:40:20.552Z,27.96
2022-08-17T17:42:49.171Z,27.78
2022-08-17T17:45:26.272Z,27.64
2022-08-17T17:47:53.372Z,27.45
2022-08-17T17:50:29.058Z,27.24
2022-08-17T17:53:35.146Z,27.04
2022-08-17T17:56:44.240Z,26.87
2022-08-17T17:59:33.188Z,26.67
2022-08-17T18:02:41.730Z,26.46
2022-08-17T18:05:38.712Z,26.27
2022-08-17T18:08:33.836Z,26.09
2022-08-17T18:11:24.038Z,25.90
2022-08-17T18:14:14.451Z,25.75
2022-08-17T18:16:45.190Z,25.61
2022-08-17T18:19:20.729Z,25.48
2022-08-17T18:21:52.892Z,25.31
2022-08-17T18:24:34.020Z,25.16
2022-08-17T18:27:08.489Z,25.02
2022-08-17T18:29:43.373Z,24.86
2022-08-17T18:32:19.151Z,24.79
2022-08-17T18:34:48.739Z,24.67
2022-08-17T18:37:53.069Z,24.59
2022-08-17T18:40:19.987Z,24.56
2022-08-17T18:43:03.139Z,24.45
2022-08-17T18:45:51.132Z,24.34
2022-08-17T18:48:36.566Z,24.27
2022-08-17T18:51:42.073Z,24.10
2022-08-17T18:54:24.522Z,23.96
2022-08-17T18:57:00.536Z,23.83
2022-08-17T18:59:49.652Z,23.83
2022-08-17T19:02:36.084Z,23.78
2022-08-17T19:05:09.099Z,23.72
2022-08-17T19:07:46.297Z,23.63
2022-08-17T19:10:22.372Z,23.62
2022-08-17T19:12:55.298Z,23.56
2022-08-17T19:15:35.846Z,23.42
2022-08-17T19:18:30.745Z,23.38
2022-08-17T19:21:10.040Z,23.15
2022-08-17T19:23:54.087Z,23.07
2022-08-17T19:26:50.656Z,22.90
2022-08-17T19:30:07.791Z,22.89
2022-08-17T19:32:36.265Z,22.82
2022-08-17T19:35:07.555Z,22.75
2022-08-17T19:37:56.561Z,22.65
2022-08-17T19:40:58.533Z,22.49
2022-08-17T19:43:37.995Z,22.38
2022-08-17T19:46:13.637Z,22.19
2022-08-17T19:48:55.331Z,22.06
2022-08-17T19:51:40.970Z,21.98
2022-08-17T19:54:24.754Z,21.89
2022-08-17T19:57:27.813Z,21.83
2022-08-17T19:59:59.203Z,21.51
2022-08-17T20:02:53.519Z,21.72
2022-08-17T20:05:29.372Z,21.64
2022-08-17T20:08:08.532Z,21.52
2022-08-17T20:11:21.534Z,21.39
2022-08-17T20:13:59.716Z,21.43
2022-08-17T20:16:26.725Z,21.44
2022-08-17T20:19:39.393Z,21.40
2022-08-17T20:22:16.844Z,21.25
2022-08-17T20:24:45.530Z,20.98
2022-08-17T20:27:12.299Z,20.99
2022-08-17T20:30:09.820Z,21.00
2022-08-17T20:32:48.757Z,20.96
2022-08-17T20:35:26.476Z,20.86
2022-08-17T20:37:57.565Z,20.75
2022-08-17T20:40:49.360Z,20.74
2022-08-17T20:43:49.312Z,20.63
2022-08-17T20:46:38.316Z,20.44
2022-08-17T20:49:14.924Z,20.28
2022-08-17T20:52:00.692Z,20.13
2022-08-17T20:54:50.135Z,20.14
2022-08-17T20:57:32.382Z,20.07
2022-08-17T21:00:17.550Z,20.11
2022-08-17T21:02:49.794Z,20.11
2022-08-17T21:05:59.757Z,20.14
2022-08-17T21:08:53.354Z,20.09
2022-08-17T21:12:02.148Z,20.00
2022-08-17T21:14:39.429Z,19.96
2022-08-17T21:18:01.532Z,19.86
2022-08-17T21:20:49.478Z,19.77
2022-08-17T21:23:38.021Z,19.65
2022-08-17T21:26:30.838Z,19.53
2022-08-17T21:29:29.775Z,19.41
2022-08-17T21:32:03.614Z,19.44
2022-08-17T21:34:35.108Z,19.40
2022-08-17T21:37:20.514Z,19.43
2022-08-17T21:39:52.242Z,19.35
2022-08-17T21:42:26.664Z,19.48
2022-08-17T21:44:58.113Z,19.47
2022-08-17T21:47:29.350Z,19.41
2022-08-17T21:50:16.129Z,19.31
2022-08-17T21:52:43.614Z,19.22
2022-08-17T21:55:29.101Z,19.23
2022-08-17T21:58:14.277Z,19.14
2022-08-17T22:00:45.347Z,19.21
2022-08-17T22:03:24.096Z,19.19
2022-08-17T22:05:51.549Z,19.15
2022-08-17T22:08:22.244Z,19.06
2022-08-17T22:10:51.562Z,19.09
2022-08-17T22:13:18.327Z,19.08
2022-08-17T22:16:15.710Z,19.04
2022-08-17T22:18:58.206Z,18.96
2022-08-17T22:21:27.326Z,18.86
2022-08-17T22:24:15.793Z,18.73
2022-08-17T22:27:10.497Z,18.87
2022-08-17T22:29:45.253Z,18.83
2022-08-17T22:32:49.441Z,18.59
2022-08-17T22:35:39.691Z,18.63
2022-08-17T22:38:18.906Z,18.58
2022-08-17T22:40:50.087Z,18.48
2022-08-17T22:43:26.050Z,18.40
2022-08-17T22:45:59.088Z,18.25
2022-08-17T22:48:29.325Z,18.21
2022-08-17T22:51:13.790Z,18.29
2022-08-17T22:54:13.487Z,18.22
2022-08-17T22:57:15.618Z,18.22
2022-08-17T22:59:54.580Z,18.15
2022-08-17T23:02:28.078Z,18.14
2022-08-17T23:05:13.208Z,18.15
2022-08-17T23:07:40.593Z,17.95
2022-08-17T23:10:10.303Z,17.99
2022-08-17T23:12:39.157Z,17.85
2022-08-17T23:15:14.469Z,17.78
2022-08-17T23:17:42.293Z,17.64
2022-08-17T23:20:15.205Z,17.61
2022-08-17T23:22:51.456Z,17.65
2022-08-17T23:25:28.217Z,17.68
2022-08-17T23:27:57.692Z,17.70
2022-08-17T23:30:25.743Z,17.71
2022-08-17T23:32:54.520Z,17.70
2022-08-17T23:35:40.370Z,17.63
2022-08-17T23:38:12.689Z,17.61
2022-08-17T23:40:40.979Z,17.58
2022-08-17T23:43:24.225Z,17.45
2022-08-17T23:45:58.186Z,17.32
2022-08-17T23:48:35.678Z,17.37
2022-08-17T23:51:08.790Z,17.28
2022-08-17T23:53:37.140Z,17.44
2022-08-17T23:56:10.450Z,17.36
2022-08-17T23:58:43.152Z,17.35
